Impacts TAF Board
For situational awareness. Not to be used for flight planning purposes.
IDs:

KFMN - Farmington/Four Corn, NM, US

Issued at 1720 UTC 30 Oct 2020
Updated at 1738 UTC 30 Oct 2020
Potential Impact None Slight Moderate High
Time1653Z 30/18Z 30/19Z 30/20Z 30/21Z 30/22Z 30/23Z 31/00Z 31/01Z 31/02Z 31/03Z 31/04Z 31/05Z 31/06Z>>
Type OBS PRVL PRVL PRVL PRVL PRVL PRVL PRVL PRVL PRVL PRVL PRVL PRVL PRVL
VIS 10 >6 >6 >6 >6 >6 >6 >6 >6 >6 >6 >6 >6 >6
CIG -- -- -- -- -- -- -- -- -- -- -- -- -- --
Cover CLR SKC FEW FEW FEW FEW FEW FEW FEW SCT SCT SCT SCT SCT
FltCat VFR VFR VFR VFR VFR VFR VFR VFR VFR VFR VFR VFR VFR VFR
WX -- -- -- -- -- -- -- -- -- -- -- -- -- --
WDir 120 120 260 260 260 260 260 260 260 VRB VRB VRB VRB VRB
WSpd 5 6 7 7 7 7 7 7 7 6 6 6 6 6
WGst -- -- -- -- -- -- -- -- -- -- -- -- -- --
Raw TAF
KFMN 301720Z 3018/3118 12006KT P6SM SKC
  FM301900 26007KT P6SM FEW250
  FM310200 VRB06KT P6SM SCT250
  FM311700 28010KT P6SM FEW250


Raw METAR
KFMN 301653Z 12005KT 10SM CLR 09/01 A3030 RMK AO2 SLP258 T00890011
KFMN 301553Z 10005KT 10SM CLR 05/00 A3032 RMK AO2 SLP269 T00500000
KFMN 301453Z 09006KT 10SM CLR 02/M01 A3031 RMK AO2 SLP266 T00221011 53004

METAR Board
Radar Display
Forecast Discussion
For situational awareness. Not to be used for flight planning purposes.